createdAt,value
2023-04-10T00:03:24.429Z,98964.80
2023-04-10T00:07:25.655Z,98962.85
2023-04-10T00:11:06.642Z,98956.98
2023-04-10T00:15:14.827Z,98950.50
2023-04-10T00:18:55.536Z,98951.36
2023-04-10T00:22:43.420Z,98953.78
2023-04-10T00:26:51.617Z,98952.06
2023-04-10T00:30:50.703Z,98953.73
2023-04-10T00:34:48.949Z,98948.41
2023-04-10T00:38:46.088Z,98950.27
2023-04-10T00:42:10.073Z,98951.84
2023-04-10T00:45:58.386Z,98948.08
2023-04-10T00:50:06.545Z,98944.98
2023-04-10T00:54:17.776Z,98941.64
2023-04-10T00:58:25.868Z,98941.46
2023-04-10T01:02:34.131Z,98944.21
2023-04-10T01:06:40.883Z,98938.51
2023-04-10T01:10:51.854Z,98935.59
2023-04-10T01:15:00.006Z,98931.29
2023-04-10T01:19:17.506Z,98931.85
2023-04-10T01:23:43.943Z,98926.95
2023-04-10T01:28:10.499Z,98916.79
2023-04-10T01:32:27.577Z,98913.01
2023-04-10T01:36:36.716Z,98907.08
2023-04-10T01:40:38.397Z,98903.48
2023-04-10T01:44:39.394Z,98909.00
2023-04-10T01:48:47.517Z,98904.04
2023-04-10T01:52:48.280Z,98900.23
2023-04-10T01:56:46.280Z,98895.13
2023-04-10T02:00:54.552Z,98895.66
2023-04-10T02:05:06.101Z,98898.05
2023-04-10T02:08:53.984Z,98897.63
2023-04-10T02:13:12.644Z,98899.37
2023-04-10T02:17:13.860Z,98901.13
2023-04-10T02:21:22.033Z,98894.50
2023-04-10T02:25:30.202Z,98890.54
2023-04-10T02:29:38.895Z,98881.10
2023-04-10T02:33:47.016Z,98876.58
2023-04-10T02:37:58.230Z,98878.23
2023-04-10T02:42:08.788Z,98872.55
2023-04-10T02:46:10.581Z,98866.36
2023-04-10T02:50:19.437Z,98862.54
2023-04-10T02:54:27.451Z,98860.74
2023-04-10T02:58:18.807Z,98857.55
2023-04-10T03:02:27.106Z,98857.80
2023-04-10T03:06:27.403Z,98855.39
2023-04-10T03:10:35.474Z,98851.25
2023-04-10T03:14:36.418Z,98858.77
2023-04-10T03:18:44.520Z,98854.84
2023-04-10T03:22:03.783Z,98859.84
2023-04-10T03:25:22.088Z,98857.91
2023-04-10T03:29:22.794Z,98853.63
2023-04-10T03:33:30.907Z,98854.67
2023-04-10T03:37:39.140Z,98858.82
2023-04-10T03:41:47.367Z,98863.43
2023-04-10T03:45:55.562Z,98857.57
2023-04-10T03:49:45.424Z,98859.12
2023-04-10T03:53:46.415Z,98856.86
2023-04-10T03:57:54.534Z,98861.41
2023-04-10T04:01:08.215Z,98862.21
2023-04-10T04:04:24.001Z,98866.85
2023-04-10T04:07:56.443Z,98862.63
2023-04-10T04:12:19.845Z,98864.16
2023-04-10T04:16:09.277Z,98859.61
2023-04-10T04:19:28.886Z,98862.95
2023-04-10T04:22:55.633Z,98869.02
2023-04-10T04:26:09.201Z,98867.89
2023-04-10T04:29:37.296Z,98864.77
2023-04-10T04:33:33.879Z,98867.55
2023-04-10T04:37:02.247Z,98863.23
2023-04-10T04:40:09.811Z,98863.05
2023-04-10T04:43:27.591Z,98868.77
2023-04-10T04:46:32.216Z,98871.57
2023-04-10T04:49:51.366Z,98871.52
2023-04-10T04:52:50.919Z,98876.95
2023-04-10T04:56:15.458Z,98876.30
2023-04-10T04:59:53.482Z,98873.39
2023-04-10T05:02:44.228Z,98876.60
2023-04-10T05:05:52.283Z,98875.87
2023-04-10T05:08:32.030Z,98877.02
2023-04-10T05:12:03.216Z,98880.55
2023-04-10T05:15:06.448Z,98884.42
2023-04-10T05:18:30.807Z,98887.97
2023-04-10T05:21:39.493Z,98887.82
2023-04-10T05:24:29.452Z,98887.66
2023-04-10T05:27:38.021Z,98888.56
2023-04-10T05:30:40.253Z,98892.13
2023-04-10T05:33:34.039Z,98893.71
2023-04-10T05:36:34.032Z,98893.73
2023-04-10T05:39:23.343Z,98894.40
2023-04-10T05:43:14.818Z,98894.00
2023-04-10T05:46:37.148Z,98893.08
2023-04-10T05:49:55.562Z,98892.66
2023-04-10T05:53:00.278Z,98898.67
2023-04-10T05:55:56.685Z,98895.39
2023-04-10T05:59:06.805Z,98897.81
2023-04-10T06:02:36.132Z,98900.23
2023-04-10T06:05:07.037Z,98902.10
2023-04-10T06:07:58.345Z,98905.43
2023-04-10T06:10:30.739Z,98903.23
2023-04-10T06:13:01.764Z,98908.71
2023-04-10T06:15:32.870Z,98907.52
2023-04-10T06:18:09.383Z,98907.54
2023-04-10T06:20:40.413Z,98907.48
2023-04-10T06:23:24.222Z,98909.70
2023-04-10T06:26:19.999Z,98910.61
2023-04-10T06:28:50.621Z,98909.81
2023-04-10T06:31:21.206Z,98912.77
2023-04-10T06:33:52.117Z,98906.61
2023-04-10T06:36:20.036Z,98909.30
2023-04-10T06:39:31.137Z,98911.90
2023-04-10T06:42:07.833Z,98910.80
2023-04-10T06:45:05.902Z,98912.77
2023-04-10T06:47:42.270Z,98913.70
2023-04-10T06:50:13.904Z,98914.54
2023-04-10T06:53:00.226Z,98912.96
2023-04-10T06:55:40.077Z,98915.69
2023-04-10T06:58:43.326Z,98917.71
2023-04-10T07:01:13.498Z,98917.05
2023-04-10T07:03:48.335Z,98917.46
2023-04-10T07:06:29.417Z,98922.09
2023-04-10T07:08:58.027Z,98925.73
2023-04-10T07:11:25.547Z,98925.39
2023-04-10T07:14:01.797Z,98925.70
2023-04-10T07:16:53.907Z,98933.48
2023-04-10T07:19:24.905Z,98932.05
2023-04-10T07:22:04.907Z,98931.77
2023-04-10T07:24:46.035Z,98936.88
2023-04-10T07:27:23.267Z,98934.59
2023-04-10T07:30:16.662Z,98932.81
2023-04-10T07:33:29.129Z,98938.65
2023-04-10T07:36:13.072Z,98938.60
2023-04-10T07:38:42.379Z,98935.69
2023-04-10T07:41:18.381Z,98935.13
2023-04-10T07:43:54.957Z,98935.56
2023-04-10T07:46:22.714Z,98938.27
2023-04-10T07:48:59.129Z,98939.05
2023-04-10T07:51:27.792Z,98939.61
2023-04-10T07:53:57.920Z,98934.36
2023-04-10T07:56:31.493Z,98933.77
2023-04-10T07:59:05.180Z,98934.14
2023-04-10T08:01:41.419Z,98934.09
2023-04-10T08:04:09.135Z,98931.36
2023-04-10T08:06:42.696Z,98931.77
2023-04-10T08:09:09.961Z,98928.64
2023-04-10T08:11:50.429Z,98930.40
2023-04-10T08:14:24.630Z,98933.49
2023-04-10T08:16:54.352Z,98932.63
2023-04-10T08:19:24.348Z,98935.77
2023-04-10T08:21:51.656Z,98936.30
2023-04-10T08:24:31.005Z,98937.15
2023-04-10T08:28:18.724Z,98931.69
2023-04-10T08:30:58.923Z,98929.00
2023-04-10T08:33:35.462Z,98928.67
2023-04-10T08:36:02.521Z,98928.38
2023-04-10T08:38:31.970Z,98931.35
2023-04-10T08:40:59.520Z,98931.67
2023-04-10T08:43:27.581Z,98926.86
2023-04-10T08:46:10.278Z,98924.69
2023-04-10T08:49:01.598Z,98924.03
2023-04-10T08:52:03.613Z,98926.05
2023-04-10T08:54:43.654Z,98923.60
2023-04-10T08:57:54.015Z,98929.36
2023-04-10T09:00:31.754Z,98926.52
2023-04-10T09:03:15.194Z,98926.98
2023-04-10T09:06:18.367Z,98925.42
2023-04-10T09:08:45.777Z,98924.71
2023-04-10T09:11:15.947Z,98923.64
2023-04-10T09:13:44.192Z,98923.72
2023-04-10T09:16:31.823Z,98924.43
2023-04-10T09:19:03.888Z,98929.23
2023-04-10T09:21:34.466Z,98928.02
2023-04-10T09:24:01.830Z,98926.44
2023-04-10T09:26:30.044Z,98927.79
2023-04-10T09:29:03.323Z,98925.73
2023-04-10T09:31:44.088Z,98920.87
2023-04-10T09:34:18.791Z,98919.55
2023-04-10T09:36:54.487Z,98921.48
2023-04-10T09:39:54.374Z,98920.70
2023-04-10T09:42:33.132Z,98921.56
2023-04-10T09:45:01.333Z,98921.62
2023-04-10T09:47:30.875Z,98924.13
2023-04-10T09:50:00.887Z,98924.45
2023-04-10T09:52:33.928Z,98924.13
2023-04-10T09:55:14.476Z,98921.23
2023-04-10T09:57:41.986Z,98919.53
2023-04-10T10:00:15.455Z,98913.23
2023-04-10T10:02:44.936Z,98907.63
2023-04-10T10:05:17.005Z,98905.23
2023-04-10T10:07:49.688Z,98898.36
2023-04-10T10:10:16.717Z,98899.59
2023-04-10T10:13:00.149Z,98899.70
2023-04-10T10:15:45.040Z,98900.20
2023-04-10T10:18:26.209Z,98894.88
2023-04-10T10:20:56.184Z,98895.78
2023-04-10T10:23:29.909Z,98895.61
2023-04-10T10:25:57.262Z,98893.27
2023-04-10T10:28:25.370Z,98893.79
2023-04-10T10:31:04.424Z,98890.52
2023-04-10T10:34:05.659Z,98888.22
2023-04-10T10:37:20.089Z,98880.38
2023-04-10T10:39:56.795Z,98877.39
2023-04-10T10:42:51.098Z,98877.61
2023-04-10T10:45:47.281Z,98877.45
2023-04-10T10:48:14.484Z,98871.34
2023-04-10T10:50:57.417Z,98874.03
2023-04-10T10:53:39.669Z,98870.07
2023-04-10T10:56:23.434Z,98868.58
2023-04-10T10:59:02.113Z,98870.39
2023-04-10T11:01:39.421Z,98878.72
2023-04-10T11:04:48.718Z,98887.28
2023-04-10T11:07:16.140Z,98894.65
2023-04-10T11:09:57.827Z,98895.84
2023-04-10T11:12:26.046Z,98902.80
2023-04-10T11:15:00.694Z,98906.23
2023-04-10T11:17:48.794Z,98911.67
2023-04-10T11:20:17.032Z,98910.29
2023-04-10T11:23:10.478Z,98908.44
2023-04-10T11:25:53.048Z,98910.50
2023-04-10T11:28:38.860Z,98904.75
2023-04-10T11:31:22.798Z,98910.33
2023-04-10T11:34:10.988Z,98908.29
2023-04-10T11:36:41.969Z,98904.20
2023-04-10T11:39:09.556Z,98900.08
2023-04-10T11:41:43.239Z,98897.41
2023-04-10T11:44:12.055Z,98899.19
2023-04-10T11:46:43.341Z,98894.28
2023-04-10T11:49:10.864Z,98897.83
2023-04-10T11:51:52.273Z,98895.89
2023-04-10T11:54:24.075Z,98890.85
2023-04-10T11:57:17.515Z,98883.66
2023-04-10T11:59:49.832Z,98876.29
2023-04-10T12:02:16.920Z,98875.98
2023-04-10T12:04:44.669Z,98872.74
2023-04-10T12:07:19.295Z,98873.01
2023-04-10T12:09:49.922Z,98866.41
2023-04-10T12:12:21.805Z,98863.10
2023-04-10T12:14:53.443Z,98865.67
2023-04-10T12:17:21.212Z,98862.67
2023-04-10T12:19:53.342Z,98858.73
2023-04-10T12:22:26.025Z,98859.00
2023-04-10T12:24:54.478Z,98859.48
2023-04-10T12:27:43.756Z,98859.48
2023-04-10T12:30:57.435Z,98856.95
2023-04-10T12:33:58.078Z,98854.38
2023-04-10T12:36:35.449Z,98853.36
2023-04-10T12:39:22.474Z,98854.40
2023-04-10T12:42:17.806Z,98851.36
2023-04-10T12:44:54.853Z,98851.29
2023-04-10T12:47:26.072Z,98849.96
2023-04-10T12:50:27.839Z,98846.98
2023-04-10T12:53:04.976Z,98848.73
2023-04-10T12:55:34.529Z,98841.92
2023-04-10T12:58:29.248Z,98840.77
2023-04-10T13:01:02.824Z,98836.28
2023-04-10T13:03:31.907Z,98839.29
2023-04-10T13:05:59.709Z,98831.54
2023-04-10T13:08:32.695Z,98826.95
2023-04-10T13:11:04.643Z,98824.30
2023-04-10T13:13:33.918Z,98821.93
2023-04-10T13:16:01.452Z,98818.90
2023-04-10T13:18:29.490Z,98820.54
2023-04-10T13:20:56.680Z,98822.52
2023-04-10T13:23:24.772Z,98821.09
2023-04-10T13:25:52.372Z,98815.95
2023-04-10T13:28:21.551Z,98816.35
2023-04-10T13:30:48.719Z,98813.17
2023-04-10T13:33:18.440Z,98809.96
2023-04-10T13:35:45.752Z,98807.58
2023-04-10T13:38:12.964Z,98803.14
2023-04-10T13:40:52.910Z,98796.93
2023-04-10T13:43:21.018Z,98797.72
2023-04-10T13:45:50.040Z,98792.27
2023-04-10T13:48:22.293Z,98790.84
2023-04-10T13:50:54.665Z,98794.96
2023-04-10T13:53:24.617Z,98791.48
2023-04-10T13:55:54.360Z,98790.31
2023-04-10T13:58:28.709Z,98784.86
2023-04-10T14:00:56.048Z,98784.05
2023-04-10T14:03:25.844Z,98784.73
2023-04-10T14:05:54.127Z,98778.24
2023-04-10T14:08:27.131Z,98775.27
2023-04-10T14:10:54.366Z,98770.09
2023-04-10T14:13:21.790Z,98770.50
2023-04-10T14:15:53.771Z,98771.34
2023-04-10T14:18:41.229Z,98774.29
2023-04-10T14:21:20.935Z,98777.20
2023-04-10T14:23:48.290Z,98772.98
2023-04-10T14:26:18.026Z,98775.14
2023-04-10T14:28:46.088Z,98772.02
2023-04-10T14:31:13.341Z,98772.23
2023-04-10T14:33:40.962Z,98771.58
2023-04-10T14:36:15.689Z,98774.10
2023-04-10T14:38:42.770Z,98778.73
2023-04-10T14:41:10.363Z,98777.64
2023-04-10T14:43:39.674Z,98775.83
2023-04-10T14:46:07.113Z,98776.63
2023-04-10T14:48:38.067Z,98775.75
2023-04-10T14:51:14.782Z,98773.16
2023-04-10T14:53:50.099Z,98775.63
2023-04-10T14:56:18.217Z,98771.84
2023-04-10T14:58:48.259Z,98770.34
2023-04-10T15:01:16.276Z,98768.30
2023-04-10T15:03:47.315Z,98770.69
2023-04-10T15:06:16.144Z,98768.75
2023-04-10T15:08:43.660Z,98768.33
2023-04-10T15:11:10.961Z,98767.54
2023-04-10T15:13:40.190Z,98767.33
2023-04-10T15:16:25.126Z,98767.11
2023-04-10T15:18:55.407Z,98763.22
2023-04-10T15:21:22.742Z,98757.23
2023-04-10T15:23:49.793Z,98756.17
2023-04-10T15:26:17.008Z,98751.63
2023-04-10T15:28:48.416Z,98747.20
2023-04-10T15:31:16.143Z,98738.05
2023-04-10T15:33:56.143Z,98735.54
2023-04-10T15:36:26.215Z,98734.63
2023-04-10T15:39:02.896Z,98727.25
2023-04-10T15:41:33.261Z,98732.58
2023-04-10T15:44:00.291Z,98736.23
2023-04-10T15:46:32.721Z,98742.17
2023-04-10T15:49:10.407Z,98746.93
2023-04-10T15:51:39.076Z,98749.02
2023-04-10T15:54:10.999Z,98748.44
2023-04-10T15:57:10.794Z,98750.35
2023-04-10T15:59:39.332Z,98752.84
2023-04-10T16:02:06.656Z,98752.00
2023-04-10T16:04:50.018Z,98751.48
2023-04-10T16:07:18.026Z,98753.70
2023-04-10T16:09:47.634Z,98750.67
2023-04-10T16:12:24.590Z,98748.90
2023-04-10T16:14:52.526Z,98748.23
2023-04-10T16:17:22.550Z,98756.39
2023-04-10T16:19:55.140Z,98760.50
2023-04-10T16:22:24.067Z,98762.64
2023-04-10T16:24:57.224Z,98770.04
2023-04-10T16:27:27.155Z,98763.85
2023-04-10T16:29:55.034Z,98763.30
2023-04-10T16:32:31.755Z,98763.48
2023-04-10T16:35:08.861Z,98769.84
2023-04-10T16:37:38.837Z,98775.92
2023-04-10T16:40:15.334Z,98777.00
2023-04-10T16:42:45.772Z,98775.79
2023-04-10T16:45:18.697Z,98770.45
2023-04-10T16:47:46.295Z,98765.75
2023-04-10T16:50:14.272Z,98763.55
2023-04-10T16:52:45.666Z,98761.39
2023-04-10T16:55:13.187Z,98759.16
2023-04-10T16:57:40.396Z,98764.59
2023-04-10T17:00:11.693Z,98767.73
2023-04-10T17:02:40.251Z,98773.31
2023-04-10T17:05:14.965Z,98768.06
2023-04-10T17:07:45.221Z,98773.67
2023-04-10T17:10:12.380Z,98773.77
2023-04-10T17:12:43.596Z,98773.05
2023-04-10T17:15:21.692Z,98775.55
2023-04-10T17:18:01.554Z,98776.05
2023-04-10T17:20:28.912Z,98775.52
2023-04-10T17:22:56.236Z,98781.14
2023-04-10T17:25:32.374Z,98779.02
2023-04-10T17:27:59.957Z,98778.10
2023-04-10T17:30:43.177Z,98778.56
2023-04-10T17:33:10.713Z,98774.23
2023-04-10T17:35:37.747Z,98772.89
2023-04-10T17:38:08.733Z,98776.50
2023-04-10T17:40:37.087Z,98775.40
2023-04-10T17:43:08.818Z,98779.98
2023-04-10T17:45:37.558Z,98783.52
2023-04-10T17:48:04.938Z,98785.23
2023-04-10T17:50:44.567Z,98788.73
2023-04-10T17:53:11.706Z,98792.98
2023-04-10T17:55:41.608Z,98795.88
2023-04-10T17:58:15.388Z,98796.41
2023-04-10T18:00:51.449Z,98797.87
2023-04-10T18:03:19.760Z,98800.96
2023-04-10T18:05:47.532Z,98805.04
2023-04-10T18:08:14.757Z,98807.10
2023-04-10T18:10:42.626Z,98804.95
2023-04-10T18:13:09.775Z,98806.21
2023-04-10T18:15:38.312Z,98807.20
2023-04-10T18:18:05.893Z,98800.63
2023-04-10T18:20:35.758Z,98801.13
2023-04-10T18:23:06.555Z,98807.04
2023-04-10T18:25:41.214Z,98807.57
2023-04-10T18:28:23.300Z,98803.28
2023-04-10T18:30:54.963Z,98803.48
2023-04-10T18:33:28.550Z,98800.41
2023-04-10T18:36:00.350Z,98798.67
2023-04-10T18:38:27.392Z,98799.17
2023-04-10T18:40:58.023Z,98803.68
2023-04-10T18:43:25.877Z,98798.63
2023-04-10T18:45:53.920Z,98803.15
2023-04-10T18:48:23.021Z,98809.86
2023-04-10T18:50:53.551Z,98813.48
2023-04-10T18:53:25.671Z,98811.79
2023-04-10T18:56:01.221Z,98810.34
2023-04-10T18:58:37.851Z,98810.92
2023-04-10T19:01:20.348Z,98807.36
2023-04-10T19:04:06.964Z,98808.99
2023-04-10T19:06:35.144Z,98813.10
2023-04-10T19:09:04.871Z,98811.23
2023-04-10T19:11:32.671Z,98815.70
2023-04-10T19:14:08.116Z,98817.51
2023-04-10T19:16:42.207Z,98816.23
2023-04-10T19:19:16.974Z,98820.06
2023-04-10T19:21:51.779Z,98818.46
2023-04-10T19:24:21.649Z,98825.52
2023-04-10T19:26:52.924Z,98827.92
2023-04-10T19:29:33.181Z,98825.27
2023-04-10T19:32:03.332Z,98824.46
2023-04-10T19:35:05.345Z,98827.27
2023-04-10T19:37:35.740Z,98826.11
2023-04-10T19:40:18.974Z,98826.79
2023-04-10T19:42:47.180Z,98825.50
2023-04-10T19:45:21.311Z,98820.98
2023-04-10T19:47:53.538Z,98824.65
2023-04-10T19:50:20.984Z,98825.62
2023-04-10T19:53:15.695Z,98827.13
2023-04-10T19:56:15.627Z,98828.48
2023-04-10T19:58:48.211Z,98827.19
2023-04-10T20:01:24.168Z,98825.20
2023-04-10T20:04:21.591Z,98819.98
2023-04-10T20:07:09.606Z,98821.92
2023-04-10T20:10:02.475Z,98820.17
2023-04-10T20:12:33.428Z,98822.61
2023-04-10T20:17:04.709Z,98816.91
2023-04-10T20:19:45.456Z,98814.77
2023-04-10T20:22:38.833Z,98814.15
2023-04-10T20:25:07.831Z,98812.70
2023-04-10T20:28:18.141Z,98810.77
2023-04-10T20:30:53.363Z,98807.44
2023-04-10T20:33:53.804Z,98806.14
2023-04-10T20:36:41.302Z,98802.02
2023-04-10T20:39:37.365Z,98799.05
2023-04-10T20:42:49.111Z,98799.25
2023-04-10T20:46:27.317Z,98797.54
2023-04-10T20:49:44.654Z,98796.11
2023-04-10T20:53:01.030Z,98798.98
2023-04-10T20:55:37.168Z,98795.16
2023-04-10T20:58:45.223Z,98795.02
2023-04-10T21:02:11.024Z,98797.22
2023-04-10T21:05:30.153Z,98795.65
2023-04-10T21:09:30.014Z,98792.44
2023-04-10T21:12:33.710Z,98791.42
2023-04-10T21:16:12.028Z,98790.65
2023-04-10T21:19:50.956Z,98780.73
2023-04-10T21:23:17.237Z,98781.55
2023-04-10T21:26:14.844Z,98778.65
2023-04-10T21:29:49.064Z,98781.92
2023-04-10T21:33:42.561Z,98779.40
2023-04-10T21:37:50.642Z,98777.58
2023-04-10T21:41:41.400Z,98772.58
2023-04-10T21:45:05.206Z,98771.58
2023-04-10T21:48:28.285Z,98773.24
2023-04-10T21:52:08.451Z,98772.24
2023-04-10T21:55:39.621Z,98772.27
2023-04-10T21:59:31.738Z,98773.61
2023-04-10T22:03:33.567Z,98775.05
2023-04-10T22:07:18.778Z,98771.46
2023-04-10T22:10:38.100Z,98768.98
2023-04-10T22:13:53.701Z,98770.92
2023-04-10T22:17:18.007Z,98771.97
2023-04-10T22:20:29.094Z,98774.64
2023-04-10T22:24:09.499Z,98770.03
2023-04-10T22:27:37.275Z,98769.48
2023-04-10T22:31:25.950Z,98766.17
2023-04-10T22:35:27.309Z,98766.14
2023-04-10T22:39:35.416Z,98760.37
2023-04-10T22:43:09.174Z,98760.05
2023-04-10T22:46:39.642Z,98754.82
2023-04-10T22:49:47.968Z,98755.85
2023-04-10T22:53:29.477Z,98748.63
2023-04-10T22:57:03.224Z,98747.02
2023-04-10T23:01:12.472Z,98747.90
2023-04-10T23:05:13.265Z,98743.33
2023-04-10T23:09:00.137Z,98742.09
2023-04-10T23:12:54.625Z,98737.16
2023-04-10T23:16:42.339Z,98741.60
2023-04-10T23:20:50.683Z,98735.90
2023-04-10T23:24:42.403Z,98728.39
2023-04-10T23:28:50.476Z,98725.67
2023-04-10T23:32:58.688Z,98715.88
2023-04-10T23:37:06.984Z,98715.86
2023-04-10T23:41:07.961Z,98715.23
2023-04-10T23:45:05.161Z,98707.74
2023-04-10T23:49:13.275Z,98698.08
2023-04-10T23:53:12.724Z,98695.42
2023-04-10T23:56:42.450Z,98687.35
